Time;durP1;ratioP1;P1;durP2;ratioP2;P2;SDS_P1;SDS_P2;PMS_P1;PMS_P2;Temp;Humidity;BMP_temperature;BMP_pressure;BME280_temperature;BME280_humidity;BME280_pressure;Samples;Min_cycle;Max_cycle;Signal;HPM_P1;HPM_P2
2023/08/24 00:00:59;;;;;;;10.73;3.83;;;16.30;99.90;;;;;;5041199;28;20047;-74
2023/08/24 00:03:25;;;;;;;9.55;3.80;;;16.30;99.90;;;;;;5014398;28;20052;-75
2023/08/24 00:05:51;;;;;;;9.55;3.22;;;16.30;99.90;;;;;;5042141;28;20073;-72
2023/08/24 00:08:18;;;;;;;9.52;3.38;;;16.30;99.90;;;;;;5010968;28;20052;-73
2023/08/24 00:10:46;;;;;;;9.90;3.38;;;16.30;99.90;;;;;;5034358;28;20511;-72
2023/08/24 00:13:13;;;;;;;8.85;3.47;;;16.20;99.90;;;;;;4992195;28;20508;-72
2023/08/24 00:15:39;;;;;;;9.32;3.60;;;16.20;99.90;;;;;;5026292;28;20813;-71
2023/08/24 00:18:06;;;;;;;10.02;3.72;;;16.10;99.90;;;;;;5010795;28;20479;-74
2023/08/24 00:20:33;;;;;;;8.52;3.10;;;16.00;99.90;;;;;;5049304;28;20080;-73
2023/08/24 00:22:59;;;;;;;10.05;3.20;;;16.00;99.90;;;;;;5001814;28;20045;-72
2023/08/24 00:25:25;;;;;;;9.90;2.85;;;16.00;99.90;;;;;;5063391;28;20051;-73
2023/08/24 00:27:54;;;;;;;9.02;3.58;;;15.90;99.90;;;;;;5025746;28;20052;-73
2023/08/24 00:30:20;;;;;;;7.78;3.28;;;15.90;99.90;;;;;;5065235;28;20052;-74
2023/08/24 00:32:47;;;;;;;9.13;3.10;;;15.90;99.90;;;;;;5026192;28;20059;-72
2023/08/24 00:35:13;;;;;;;7.68;3.00;;;15.80;99.90;;;;;;5071584;28;20051;-73
2023/08/24 00:37:41;;;;;;;10.85;3.20;;;15.80;99.90;;;;;;5023952;28;20045;-73
2023/08/24 00:40:09;;;;;;;10.43;4.47;;;15.80;99.90;;;;;;5063193;28;20048;-72
2023/08/24 00:42:43;;;;;;;12.48;4.35;;;15.80;99.90;;;;;;5018449;28;20056;-74
2023/08/24 00:45:11;;;;;;;9.88;4.10;;;15.80;99.90;;;;;;5048487;28;20064;-72
2023/08/24 00:47:40;;;;;;;9.38;4.78;;;15.80;99.90;;;;;;5014634;28;20431;-75
2023/08/24 00:50:08;;;;;;;12.65;4.38;;;15.80;99.90;;;;;;5044804;28;20053;-73
2023/08/24 00:52:35;;;;;;;9.80;4.35;;;15.80;99.90;;;;;;5001510;28;249171;-73
2023/08/24 00:55:02;;;;;;;10.95;4.53;;;15.70;99.90;;;;;;5060562;28;20041;-73
2023/08/24 00:57:28;;;;;;;10.23;4.70;;;15.70;99.90;;;;;;5024269;28;20041;-73
2023/08/24 00:59:56;;;;;;;10.43;4.32;;;15.70;99.90;;;;;;5060751;28;20048;-75
2023/08/24 01:02:22;;;;;;;10.32;4.57;;;15.70;99.90;;;;;;5024368;28;20037;-76
2023/08/24 01:04:48;;;;;;;10.77;4.78;;;15.70;99.90;;;;;;5060212;28;20052;-74
2023/08/24 01:07:16;;;;;;;11.52;4.00;;;15.70;99.90;;;;;;5017542;28;20051;-74
2023/08/24 01:09:42;;;;;;;10.45;4.38;;;15.70;99.90;;;;;;5050297;28;20067;-71
2023/08/24 01:12:37;;;;;;;10.98;4.95;;;15.80;99.90;;;;;;5025276;28;20684;-72
2023/08/24 01:15:09;;;;;;;11.23;4.82;;;15.80;99.90;;;;;;5058170;28;20053;-74
2023/08/24 01:17:38;;;;;;;11.82;5.25;;;15.80;99.90;;;;;;5031069;28;20036;-76
2023/08/24 01:20:06;;;;;;;9.75;4.50;;;15.80;99.90;;;;;;5067323;28;20052;-74
2023/08/24 01:23:04;;;;;;;10.95;5.05;;;15.80;99.90;;;;;;5017008;28;20060;-73
2023/08/24 01:25:54;;;;;;;11.50;4.50;;;15.80;99.90;;;;;;5059543;28;20418;-73
2023/08/24 01:28:21;;;;;;;10.25;4.53;;;15.90;99.90;;;;;;5032646;28;20063;-74
2023/08/24 01:30:48;;;;;;;12.57;5.25;;;15.80;99.90;;;;;;5060481;28;20057;-72
2023/08/24 01:33:14;;;;;;;14.23;5.10;;;15.90;99.90;;;;;;5001321;28;20045;-74
2023/08/24 01:35:41;;;;;;;10.43;4.50;;;15.90;99.90;;;;;;5040816;28;20064;-73
2023/08/24 01:38:12;;;;;;;10.88;4.70;;;15.90;99.90;;;;;;5023105;28;20036;-74
2023/08/24 01:40:59;;;;;;;10.70;4.80;;;15.90;99.90;;;;;;5050280;28;20049;-73
2023/08/24 01:43:34;;;;;;;12.40;4.38;;;15.90;99.90;;;;;;4999176;28;20045;-72
2023/08/24 01:46:07;;;;;;;10.95;4.25;;;15.90;99.90;;;;;;5035586;28;20104;-73
2023/08/24 01:48:33;;;;;;;10.20;3.80;;;15.90;99.90;;;;;;5031320;28;20052;-72
2023/08/24 01:51:01;;;;;;;8.77;3.63;;;15.90;99.90;;;;;;5039654;28;20052;-76
2023/08/24 01:53:29;;;;;;;11.50;4.50;;;16.00;99.90;;;;;;4970964;28;223269;-72
2023/08/24 01:55:56;;;;;;;11.27;3.97;;;16.00;99.90;;;;;;5041090;28;20049;-72
2023/08/24 01:58:22;;;;;;;12.75;4.60;;;15.90;99.90;;;;;;4998575;28;20056;-74
2023/08/24 02:00:48;;;;;;;11.70;4.35;;;16.00;99.90;;;;;;5041407;28;20048;-77
2023/08/24 02:03:14;;;;;;;9.60;4.13;;;16.00;99.90;;;;;;5008854;28;20049;-74
2023/08/24 02:05:40;;;;;;;12.48;4.35;;;16.00;99.90;;;;;;5040542;28;20053;-72
2023/08/24 02:08:06;;;;;;;9.88;3.90;;;16.00;99.90;;;;;;5003634;28;20693;-73
2023/08/24 02:10:32;;;;;;;12.52;4.28;;;16.00;99.90;;;;;;5058072;28;20057;-72
2023/08/24 02:12:58;;;;;;;11.25;4.10;;;16.10;99.90;;;;;;5000544;28;20053;-71
2023/08/24 02:15:25;;;;;;;12.27;4.45;;;16.00;99.90;;;;;;5031043;28;20057;-73
2023/08/24 02:17:51;;;;;;;12.10;4.85;;;16.10;99.90;;;;;;4994292;28;20119;-73
2023/08/24 02:20:17;;;;;;;12.80;5.30;;;16.10;99.90;;;;;;5041491;28;20052;-73
2023/08/24 02:22:43;;;;;;;11.27;4.22;;;16.10;99.90;;;;;;5000801;28;20048;-74
2023/08/24 02:25:09;;;;;;;11.13;4.75;;;16.10;99.90;;;;;;5040262;28;20056;-73
2023/08/24 02:27:35;;;;;;;13.35;4.85;;;16.00;99.90;;;;;;5006233;28;20052;-73
2023/08/24 02:30:02;;;;;;;13.98;5.93;;;16.00;99.90;;;;;;5042286;28;20049;-72
2023/08/24 02:32:28;;;;;;;10.40;5.00;;;16.00;99.90;;;;;;5000462;28;20055;-71
2023/08/24 02:34:54;;;;;;;13.55;5.07;;;16.00;99.90;;;;;;5033218;28;20595;-73
2023/08/24 02:37:21;;;;;;;10.68;4.85;;;16.00;99.90;;;;;;5004982;28;20099;-73
2023/08/24 02:39:47;;;;;;;13.02;4.55;;;16.00;99.90;;;;;;5027351;28;20052;-72
2023/08/24 02:42:13;;;;;;;14.20;4.55;;;16.00;99.90;;;;;;4997494;28;20045;-73
2023/08/24 02:44:40;;;;;;;13.32;5.35;;;16.00;99.90;;;;;;5050807;28;20052;-72
2023/08/24 02:47:06;;;;;;;13.98;4.15;;;16.00;99.90;;;;;;5001078;28;20053;-74
2023/08/24 02:49:32;;;;;;;12.93;4.07;;;16.00;99.90;;;;;;5044937;28;20051;-75
2023/08/24 02:51:58;;;;;;;10.73;4.30;;;16.00;99.90;;;;;;4994421;28;222089;-73
2023/08/24 02:54:24;;;;;;;11.15;4.55;;;16.00;99.90;;;;;;5037870;28;20050;-72
2023/08/24 02:56:50;;;;;;;12.38;4.53;;;16.00;99.90;;;;;;4996728;28;20061;-73
2023/08/24 02:59:17;;;;;;;10.68;4.13;;;16.00;99.90;;;;;;5041753;28;20041;-73
2023/08/24 03:01:43;;;;;;;13.18;4.30;;;16.00;99.90;;;;;;5023557;28;20059;-74
2023/08/24 03:04:09;;;;;;;11.85;4.40;;;16.00;99.90;;;;;;5058417;28;20041;-73
2023/08/24 03:06:35;;;;;;;12.00;4.60;;;15.90;99.90;;;;;;5046312;28;20056;-73
2023/08/24 03:09:04;;;;;;;12.93;4.43;;;15.90;99.90;;;;;;5040596;28;20073;-74
2023/08/24 03:11:30;;;;;;;12.05;4.30;;;15.90;99.90;;;;;;5059938;28;20504;-75
2023/08/24 03:13:56;;;;;;;10.30;3.90;;;15.90;99.90;;;;;;4986385;28;20557;-72
2023/08/24 03:16:22;;;;;;;10.50;4.15;;;15.90;99.90;;;;;;5055961;28;20071;-73
2023/08/24 03:18:48;;;;;;;12.52;4.95;;;16.00;99.90;;;;;;5009209;28;20045;-72
2023/08/24 03:21:14;;;;;;;16.38;4.90;;;15.90;99.90;;;;;;5058095;28;20055;-72
2023/08/24 03:23:40;;;;;;;13.30;5.07;;;16.00;99.90;;;;;;5016241;28;20052;-73
2023/08/24 03:26:06;;;;;;;11.10;4.43;;;15.90;99.90;;;;;;5060837;28;20523;-73
2023/08/24 03:28:32;;;;;;;12.10;4.57;;;15.90;99.90;;;;;;5010305;28;20052;-71
2023/08/24 03:31:00;;;;;;;11.75;4.70;;;15.90;99.90;;;;;;5059845;28;20063;-71
2023/08/24 03:33:27;;;;;;;12.25;4.57;;;15.90;99.90;;;;;;5022667;28;20052;-72
2023/08/24 03:35:54;;;;;;;14.15;5.53;;;15.80;99.90;;;;;;5055482;28;20057;-76
2023/08/24 03:38:20;;;;;;;11.70;5.03;;;15.80;99.90;;;;;;5020101;28;20037;-73
2023/08/24 03:40:46;;;;;;;15.05;5.15;;;15.80;99.90;;;;;;5064084;28;20055;-72
2023/08/24 03:43:12;;;;;;;11.40;4.28;;;15.70;99.90;;;;;;5026856;28;20044;-72
2023/08/24 03:45:38;;;;;;;13.10;4.97;;;15.70;99.90;;;;;;5063601;28;20102;-73
2023/08/24 03:48:05;;;;;;;11.23;4.22;;;15.70;99.90;;;;;;5036468;28;20048;-73
2023/08/24 03:50:31;;;;;;;13.63;4.35;;;15.60;99.90;;;;;;5068131;28;20049;-71
2023/08/24 03:52:57;;;;;;;12.85;4.95;;;15.60;99.90;;;;;;5001139;28;210850;-72
2023/08/24 03:55:23;;;;;;;11.40;4.78;;;15.60;99.90;;;;;;5056394;28;20049;-72
2023/08/24 03:57:49;;;;;;;12.75;4.43;;;15.60;99.90;;;;;;5021913;28;20041;-74
2023/08/24 04:00:16;;;;;;;12.05;4.80;;;15.50;99.90;;;;;;5062395;28;20055;-75
2023/08/24 04:02:43;;;;;;;16.40;5.75;;;15.50;99.90;;;;;;5000273;28;20050;-75
2023/08/24 04:05:09;;;;;;;13.65;4.88;;;15.50;99.90;;;;;;5027347;28;20052;-72
2023/08/24 04:07:39;;;;;;;15.50;5.70;;;15.40;99.90;;;;;;5015955;28;20045;-74
2023/08/24 04:10:06;;;;;;;11.57;4.78;;;15.40;99.90;;;;;;5051834;28;20056;-71
2023/08/24 04:12:33;;;;;;;12.27;5.00;;;15.40;99.90;;;;;;5004935;28;20053;-73
2023/08/24 04:14:59;;;;;;;15.50;5.70;;;15.30;99.90;;;;;;5017030;28;20129;-74
2023/08/24 04:17:25;;;;;;;10.73;4.68;;;15.30;99.90;;;;;;5008997;28;20044;-75
2023/08/24 04:19:52;;;;;;;12.13;4.47;;;15.20;99.90;;;;;;5047890;28;20076;-73
2023/08/24 04:22:18;;;;;;;17.55;5.20;;;15.20;99.90;;;;;;5027727;28;20041;-72
2023/08/24 04:24:44;;;;;;;12.98;4.95;;;15.20;99.90;;;;;;5040606;28;20047;-74
2023/08/24 04:27:11;;;;;;;14.00;4.93;;;15.20;99.90;;;;;;5003749;28;20044;-72
2023/08/24 04:29:37;;;;;;;15.93;5.18;;;15.10;99.90;;;;;;5049405;28;20053;-73
2023/08/24 04:32:04;;;;;;;12.82;5.32;;;15.10;99.90;;;;;;5025960;28;20044;-72
2023/08/24 04:34:30;;;;;;;12.48;4.63;;;15.10;99.90;;;;;;5055703;28;20041;-75
2023/08/24 04:36:56;;;;;;;12.27;5.07;;;15.00;99.90;;;;;;5027640;28;21435;-74
2023/08/24 04:39:22;;;;;;;11.45;4.93;;;15.00;99.90;;;;;;5069612;28;20055;-73
2023/08/24 04:41:48;;;;;;;13.52;5.45;;;15.00;99.90;;;;;;5023844;28;20052;-74
2023/08/24 04:44:14;;;;;;;14.65;5.60;;;15.00;99.90;;;;;;5058982;28;20048;-73
2023/08/24 04:46:40;;;;;;;10.10;5.13;;;15.00;99.90;;;;;;5032224;28;20544;-75
2023/08/24 04:49:06;;;;;;;14.13;6.20;;;15.00;99.90;;;;;;5056727;28;20053;-73
2023/08/24 04:51:32;;;;;;;13.05;5.47;;;15.00;99.90;;;;;;5060677;28;20045;-75
2023/08/24 04:53:58;;;;;;;14.30;5.75;;;15.00;99.90;;;;;;5020424;28;139707;-73
2023/08/24 04:56:24;;;;;;;17.35;7.03;;;15.00;99.90;;;;;;5060858;28;20051;-72
2023/08/24 04:58:58;;;;;;;13.15;6.47;;;15.00;99.90;;;;;;5033241;28;20050;-72
2023/08/24 05:01:27;;;;;;;13.23;6.05;;;15.10;99.90;;;;;;5074719;28;20465;-72
2023/08/24 05:03:53;;;;;;;14.35;6.90;;;15.10;99.90;;;;;;5020760;28;20041;-72
2023/08/24 05:06:20;;;;;;;13.00;6.82;;;15.10;99.90;;;;;;5062444;28;20048;-72
2023/08/24 05:08:47;;;;;;;14.02;7.38;;;15.10;99.90;;;;;;5028750;28;20064;-73
2023/08/24 05:11:18;;;;;;;14.30;7.00;;;15.20;99.90;;;;;;5075782;28;20032;-73
2023/08/24 05:13:45;;;;;;;15.77;6.97;;;15.20;99.90;;;;;;5015019;28;20044;-73
2023/08/24 05:16:12;;;;;;;15.93;7.22;;;15.40;99.90;;;;;;5062488;28;20470;-74
2023/08/24 05:18:38;;;;;;;15.40;7.32;;;15.50;99.90;;;;;;5008652;28;20416;-72
2023/08/24 05:21:05;;;;;;;16.50;7.15;;;15.70;99.90;;;;;;5071660;28;20049;-72
2023/08/24 05:23:32;;;;;;;19.27;6.93;;;15.90;99.90;;;;;;4999764;28;20511;-73
2023/08/24 05:25:59;;;;;;;14.63;7.78;;;16.10;99.90;;;;;;5036796;28;20057;-74
2023/08/24 05:28:25;;;;;;;13.07;6.40;;;16.30;99.90;;;;;;5018006;28;20063;-74
2023/08/24 05:30:52;;;;;;;13.90;6.15;;;16.50;99.90;;;;;;5063415;28;20649;-72
2023/08/24 05:33:20;;;;;;;16.30;6.85;;;16.70;99.90;;;;;;5040772;28;20048;-72
2023/08/24 05:35:46;;;;;;;16.38;6.30;;;17.00;99.90;;;;;;5065966;28;20056;-72
2023/08/24 05:38:13;;;;;;;19.55;6.20;;;17.20;99.90;;;;;;5014898;28;20040;-73
2023/08/24 05:40:42;;;;;;;12.95;5.25;;;17.50;99.90;;;;;;5062214;28;20446;-71
2023/08/24 05:43:11;;;;;;;13.35;5.20;;;17.80;99.90;;;;;;5026041;28;20459;-71
2023/08/24 05:45:39;;;;;;;15.43;5.47;;;18.10;99.90;;;;;;5061022;28;20057;-72
2023/08/24 05:48:06;;;;;;;13.57;4.63;;;18.40;99.90;;;;;;5018913;28;20422;-73
2023/08/24 05:50:32;;;;;;;12.93;4.53;;;18.70;99.90;;;;;;5066983;28;20056;-75
2023/08/24 05:52:58;;;;;;;11.65;3.90;;;18.90;99.90;;;;;;5008633;28;239805;-72
2023/08/24 05:55:24;;;;;;;14.95;4.25;;;19.10;99.90;;;;;;5060421;28;20438;-70
2023/08/24 05:57:50;;;;;;;10.43;3.50;;;19.20;99.90;;;;;;5017912;28;20056;-71
2023/08/24 06:00:17;;;;;;;10.93;3.55;;;19.30;99.90;;;;;;5061819;28;20056;-71
2023/08/24 06:02:43;;;;;;;14.57;3.63;;;19.50;99.90;;;;;;5025914;28;20063;-73
2023/08/24 06:05:11;;;;;;;11.95;3.20;;;19.60;99.90;;;;;;5056427;28;20056;-73
2023/08/24 06:07:37;;;;;;;11.68;3.40;;;19.70;99.90;;;;;;5022209;28;20519;-72
2023/08/24 06:10:03;;;;;;;12.10;2.95;;;19.90;99.90;;;;;;5051016;28;20044;-71
2023/08/24 06:12:29;;;;;;;10.68;2.80;;;20.10;99.90;;;;;;5021394;28;20051;-71
2023/08/24 06:14:55;;;;;;;12.70;2.58;;;20.20;99.90;;;;;;5058709;28;20048;-71
2023/08/24 06:17:21;;;;;;;9.10;2.50;;;20.40;99.90;;;;;;5016126;28;20519;-73
2023/08/24 06:19:47;;;;;;;13.90;2.58;;;20.70;99.90;;;;;;5050904;28;20681;-73
2023/08/24 06:22:13;;;;;;;8.95;2.13;;;20.90;99.90;;;;;;5013369;28;20045;-72
2023/08/24 06:24:39;;;;;;;10.77;2.33;;;21.30;99.90;;;;;;5050227;28;20067;-72
2023/08/24 06:27:05;;;;;;;11.23;2.70;;;21.50;99.90;;;;;;5017385;28;20760;-72
2023/08/24 06:29:32;;;;;;;10.75;2.40;;;21.50;99.90;;;;;;5056488;28;20064;-74
2023/08/24 06:31:58;;;;;;;14.80;2.15;;;21.70;99.90;;;;;;5023229;28;20722;-74
2023/08/24 06:34:24;;;;;;;10.60;2.42;;;21.70;99.90;;;;;;5049074;28;20060;-72
2023/08/24 06:36:50;;;;;;;9.98;2.13;;;21.90;99.90;;;;;;5022335;28;20707;-72
2023/08/24 06:39:16;;;;;;;8.88;2.28;;;22.10;99.90;;;;;;5059310;28;20749;-71
2023/08/24 06:41:43;;;;;;;8.73;2.10;;;22.20;99.90;;;;;;5020035;28;20060;-72
2023/08/24 06:44:09;;;;;;;9.43;2.28;;;22.30;99.90;;;;;;5022098;28;20041;-71
2023/08/24 06:46:35;;;;;;;10.50;2.45;;;22.40;99.90;;;;;;5045545;28;20072;-73
2023/08/24 06:49:01;;;;;;;10.15;2.45;;;22.50;99.90;;;;;;5048401;28;20503;-72
2023/08/24 06:51:30;;;;;;;8.80;2.28;;;22.60;99.90;;;;;;5062695;28;20060;-72
2023/08/24 06:53:56;;;;;;;10.38;2.53;;;22.60;99.90;;;;;;4997613;28;160973;-74
2023/08/24 06:56:22;;;;;;;9.63;2.15;;;22.40;99.90;;;;;;5056238;28;20057;-74
2023/08/24 06:58:48;;;;;;;7.35;2.05;;;22.50;99.90;;;;;;5022454;28;20044;-74
2023/08/24 07:01:15;;;;;;;12.13;2.13;;;22.70;99.90;;;;;;5064187;28;20523;-74
2023/08/24 07:03:42;;;;;;;10.95;2.80;;;23.00;99.90;;;;;;5029830;28;20052;-73
2023/08/24 07:06:08;;;;;;;8.80;2.50;;;23.20;99.90;;;;;;5051757;28;20499;-72
2023/08/24 07:08:34;;;;;;;10.57;2.88;;;23.10;99.90;;;;;;5033773;28;20840;-72
2023/08/24 07:11:02;;;;;;;11.63;2.97;;;23.00;99.90;;;;;;5057409;28;20048;-74
2023/08/24 07:13:28;;;;;;;10.70;2.70;;;22.90;99.90;;;;;;5019679;28;20432;-73
2023/08/24 07:15:55;;;;;;;14.63;3.30;;;23.00;99.90;;;;;;5055244;28;20060;-75
2023/08/24 07:18:21;;;;;;;10.57;3.00;;;23.20;99.90;;;;;;5032316;28;20123;-73
2023/08/24 07:20:47;;;;;;;11.02;3.55;;;23.40;99.90;;;;;;5062630;28;20056;-72
2023/08/24 07:23:14;;;;;;;10.95;3.65;;;23.40;99.90;;;;;;5035767;28;20044;-71
2023/08/24 07:25:41;;;;;;;14.35;3.83;;;23.30;99.90;;;;;;5062503;28;20056;-70
2023/08/24 07:28:08;;;;;;;10.18;3.40;;;23.40;99.90;;;;;;5025666;28;20048;-74
2023/08/24 07:30:35;;;;;;;12.50;3.80;;;23.60;99.90;;;;;;5062652;28;20518;-72
2023/08/24 07:33:05;;;;;;;13.55;3.35;;;24.00;99.90;;;;;;5012501;28;20470;-72
2023/08/24 07:35:32;;;;;;;12.00;3.90;;;24.40;99.90;;;;;;5060620;28;20530;-75
2023/08/24 07:37:58;;;;;;;13.25;3.53;;;24.30;99.90;;;;;;5027640;28;20065;-73
2023/08/24 07:40:25;;;;;;;9.82;3.20;;;24.40;99.90;;;;;;5063359;28;20065;-71
2023/08/24 07:42:54;;;;;;;12.90;3.58;;;24.50;99.90;;;;;;5034306;28;20059;-71
2023/08/24 07:45:20;;;;;;;11.20;3.25;;;24.50;99.90;;;;;;5060533;28;20526;-72
2023/08/24 07:47:46;;;;;;;11.27;3.30;;;24.30;99.90;;;;;;5028977;28;20427;-75
2023/08/24 07:50:13;;;;;;;13.40;3.65;;;24.40;99.90;;;;;;5064841;28;20533;-71
2023/08/24 07:52:39;;;;;;;9.77;3.60;;;24.70;99.90;;;;;;5011573;28;55908;-73
2023/08/24 07:55:09;;;;;;;11.15;3.50;;;24.70;99.90;;;;;;5048354;28;20053;-71
2023/08/24 07:57:37;;;;;;;11.13;3.67;;;24.90;99.80;;;;;;4996013;28;20606;-73
2023/08/24 08:00:07;;;;;;;10.25;3.50;;;25.20;99.90;;;;;;5039103;28;20060;-72
2023/08/24 08:02:33;;;;;;;11.93;4.10;;;25.60;99.90;;;;;;4999824;28;20530;-73
2023/08/24 08:04:59;;;;;;;11.85;3.80;;;25.90;99.30;;;;;;5039376;28;20052;-72
2023/08/24 08:07:26;;;;;;;10.80;3.90;;;26.10;99.40;;;;;;5003275;28;20057;-72
2023/08/24 08:09:52;;;;;;;11.35;4.00;;;26.30;99.20;;;;;;5053324;28;20056;-72
2023/08/24 08:12:18;;;;;;;14.18;4.47;;;26.50;99.00;;;;;;5009871;28;20071;-72
2023/08/24 08:14:44;;;;;;;12.25;3.70;;;26.70;98.60;;;;;;5044570;28;20052;-72
2023/08/24 08:17:11;;;;;;;12.70;3.95;;;26.90;98.50;;;;;;5005473;28;20052;-71
2023/08/24 08:19:37;;;;;;;11.80;4.05;;;27.20;98.60;;;;;;5055342;28;20052;-72
2023/08/24 08:22:04;;;;;;;12.20;3.72;;;27.60;98.10;;;;;;5001126;28;20498;-73
2023/08/24 08:24:30;;;;;;;11.40;3.45;;;28.00;97.50;;;;;;5040897;28;20517;-73
2023/08/24 08:26:57;;;;;;;11.70;3.75;;;27.90;97.30;;;;;;5009243;28;20063;-71
2023/08/24 08:29:23;;;;;;;11.32;3.90;;;28.00;97.30;;;;;;5057295;28;20041;-71
2023/08/24 08:31:49;;;;;;;10.63;3.40;;;28.20;97.10;;;;;;4996502;28;20064;-72
2023/08/24 08:34:15;;;;;;;12.48;3.85;;;28.40;97.10;;;;;;5056839;28;20049;-72
2023/08/24 08:36:41;;;;;;;9.57;3.20;;;28.80;96.70;;;;;;5024459;28;21555;-71
2023/08/24 08:39:08;;;;;;;12.25;3.85;;;28.80;96.20;;;;;;5057752;28;20059;-73
2023/08/24 08:41:41;;;;;;;11.05;3.95;;;28.80;96.10;;;;;;5027941;28;20056;-74
2023/08/24 08:44:12;;;;;;;14.65;3.45;;;28.60;95.10;;;;;;5007652;28;20074;-72
2023/08/24 08:46:40;;;;;;;9.45;3.30;;;28.30;96.10;;;;;;5006175;28;20642;-71
2023/08/24 08:49:07;;;;;;;11.13;3.58;;;28.40;96.20;;;;;;5049133;28;20064;-72
2023/08/24 08:51:36;;;;;;;10.82;3.53;;;28.80;96.10;;;;;;5024528;28;20053;-73
2023/08/24 08:54:05;;;;;;;12.57;3.67;;;28.80;95.30;;;;;;4984552;28;86770;-72
2023/08/24 08:56:32;;;;;;;10.73;3.63;;;29.00;95.60;;;;;;5037774;28;20056;-74
2023/08/24 08:59:00;;;;;;;9.15;3.40;;;29.20;95.30;;;;;;4981209;28;20460;-74
2023/08/24 09:01:27;;;;;;;13.75;3.75;;;29.50;95.30;;;;;;5039266;28;20053;-72
2023/08/24 09:03:54;;;;;;;14.68;4.60;;;29.60;95.00;;;;;;5019664;28;20435;-72
2023/08/24 09:06:21;;;;;;;11.30;4.10;;;29.50;94.70;;;;;;5063053;28;20048;-72
2023/08/24 09:08:49;;;;;;;13.80;4.40;;;29.50;94.60;;;;;;5024703;28;21580;-74
2023/08/24 09:11:17;;;;;;;11.77;3.92;;;29.00;94.50;;;;;;5056230;28;20052;-73
2023/08/24 09:13:43;;;;;;;11.95;4.00;;;28.80;94.90;;;;;;4998042;28;21967;-75
2023/08/24 09:16:14;;;;;;;14.25;3.88;;;28.80;95.00;;;;;;5038601;28;20057;-72
2023/08/24 09:18:44;;;;;;;14.52;4.38;;;28.60;95.10;;;;;;5016086;28;20574;-74
2023/08/24 09:21:12;;;;;;;9.98;4.25;;;28.30;94.90;;;;;;5034352;28;20668;-73
2023/08/24 09:23:45;;;;;;;12.00;4.47;;;28.00;95.20;;;;;;5019674;28;20063;-72
2023/08/24 09:26:11;;;;;;;13.73;4.78;;;27.60;95.40;;;;;;5037640;28;20524;-74
2023/08/24 09:28:39;;;;;;;11.60;4.30;;;27.30;95.70;;;;;;5016527;28;20044;-71
2023/08/24 09:31:05;;;;;;;10.18;3.90;;;27.20;95.90;;;;;;5039523;28;20065;-73
2023/08/24 09:33:31;;;;;;;11.95;4.93;;;27.20;96.00;;;;;;5015936;28;20049;-73
2023/08/24 09:36:04;;;;;;;12.98;4.55;;;27.10;95.90;;;;;;5037849;28;20063;-73
2023/08/24 09:38:30;;;;;;;12.15;4.93;;;27.10;95.90;;;;;;5026712;28;20056;-73
2023/08/24 09:40:56;;;;;;;12.00;4.78;;;26.90;96.00;;;;;;5036851;28;20060;-72
2023/08/24 09:43:23;;;;;;;11.48;4.88;;;26.70;96.20;;;;;;5022440;28;20060;-72
2023/08/24 09:45:50;;;;;;;12.57;5.15;;;26.50;96.40;;;;;;5039996;28;20069;-76
2023/08/24 09:48:19;;;;;;;13.05;4.78;;;26.20;96.70;;;;;;5010755;28;20447;-73
2023/08/24 09:50:47;;;;;;;13.27;4.75;;;26.00;97.00;;;;;;5035845;28;20669;-74
2023/08/24 09:53:21;;;;;;;15.07;5.07;;;25.90;97.20;;;;;;4996288;28;91808;-72
2023/08/24 09:56:07;;;;;;;11.63;5.55;;;25.80;97.20;;;;;;5036195;28;20428;-72
2023/08/24 09:58:34;;;;;;;13.98;5.82;;;25.60;97.50;;;;;;5027460;28;20056;-71
2023/08/24 10:01:01;;;;;;;21.95;6.45;;;25.50;97.60;;;;;;5036850;28;20048;-73
2023/08/24 10:03:29;;;;;;;11.68;5.38;;;25.20;97.70;;;;;;5022388;28;20048;-75
2023/08/24 10:06:00;;;;;;;13.90;5.47;;;25.20;98.00;;;;;;5041753;28;20055;-77
2023/08/24 10:08:29;;;;;;;10.45;4.72;;;25.10;98.00;;;;;;5029393;28;20048;-72
2023/08/24 10:10:59;;;;;;;14.38;5.32;;;25.10;98.10;;;;;;5062010;28;20044;-72
2023/08/24 10:13:37;;;;;;;12.30;5.70;;;25.10;98.20;;;;;;5010942;28;20049;-73
2023/08/24 10:16:06;;;;;;;16.98;6.28;;;25.00;98.30;;;;;;5052772;28;20048;-72
2023/08/24 10:18:33;;;;;;;25.33;5.82;;;24.90;98.40;;;;;;5004554;28;20056;-73
2023/08/24 10:21:01;;;;;;;12.55;5.88;;;24.80;98.60;;;;;;5054982;28;20063;-72
2023/08/24 10:23:30;;;;;;;10.15;5.25;;;24.70;98.90;;;;;;5023852;28;20052;-71
2023/08/24 10:25:57;;;;;;;14.48;6.40;;;24.70;98.80;;;;;;5059992;28;20415;-73
2023/08/24 10:28:27;;;;;;;12.07;5.78;;;24.60;99.00;;;;;;5011210;28;20067;-73
2023/08/24 10:30:55;;;;;;;11.00;5.70;;;24.50;99.20;;;;;;5058147;28;20421;-71
2023/08/24 10:33:22;;;;;;;13.02;6.35;;;24.50;99.40;;;;;;5019545;28;20052;-75
2023/08/24 10:35:48;;;;;;;14.57;6.47;;;24.40;99.60;;;;;;5060963;28;20064;-72
2023/08/24 10:38:28;;;;;;;12.32;6.28;;;24.30;99.90;;;;;;5000960;28;20053;-72
2023/08/24 10:41:03;;;;;;;15.13;6.47;;;24.20;99.90;;;;;;5059981;28;20056;-71
2023/08/24 10:43:29;;;;;;;16.70;6.18;;;24.10;99.90;;;;;;5005969;28;20527;-73
2023/08/24 10:46:00;;;;;;;17.88;6.32;;;24.20;99.90;;;;;;5059974;28;20064;-78
2023/08/24 10:48:41;;;;;;;;;;;24.20;99.90;;;;;;5005262;28;20123;-74
2023/08/24 10:51:13;;;;;;;12.90;6.30;;;24.30;99.90;;;;;;5065566;28;19916;-73
2023/08/24 10:53:45;;;;;;;12.88;7.05;;;24.20;99.90;;;;;;5013134;28;208272;-70
2023/08/24 10:56:16;;;;;;;14.48;6.80;;;24.30;99.90;;;;;;5063962;28;20064;-75
2023/08/24 10:58:46;;;;;;;15.55;7.10;;;24.20;99.90;;;;;;5021237;28;20415;-73
2023/08/24 11:01:18;;;;;;;12.03;6.10;;;24.30;99.90;;;;;;5059070;28;20049;-73
2023/08/24 11:03:55;;;;;;;15.80;6.70;;;24.50;99.90;;;;;;5004300;28;20083;-73
2023/08/24 11:06:22;;;;;;;15.43;7.40;;;24.60;99.90;;;;;;5060605;28;20060;-73
2023/08/24 11:08:49;;;;;;;15.85;8.18;;;24.70;99.90;;;;;;5001467;28;20054;-75
2023/08/24 11:11:24;;;;;;;17.13;8.00;;;24.60;99.90;;;;;;5063156;28;20053;-73
2023/08/24 11:14:15;;;;;;;13.38;7.18;;;24.60;99.90;;;;;;5012796;28;20052;-76
2023/08/24 11:16:43;;;;;;;15.73;7.80;;;24.70;99.90;;;;;;5026944;28;20392;-74
2023/08/24 11:19:12;;;;;;;16.05;7.13;;;24.70;99.90;;;;;;5052783;28;20067;-74
2023/08/24 11:21:45;;;;;;;18.85;7.70;;;24.80;99.90;;;;;;5030888;28;20717;-71
2023/08/24 11:24:17;;;;;;;15.50;7.85;;;24.80;99.90;;;;;;5051686;28;20576;-73
2023/08/24 11:26:47;;;;;;;15.95;7.95;;;24.90;99.90;;;;;;5020526;28;20047;-73
2023/08/24 11:29:15;;;;;;;16.48;7.85;;;24.90;99.90;;;;;;5052776;28;20053;-73
2023/08/24 11:31:42;;;;;;;14.15;7.75;;;24.90;99.90;;;;;;5022465;28;20057;-73
2023/08/24 11:34:08;;;;;;;12.85;6.50;;;24.90;99.90;;;;;;5060696;28;20048;-73
2023/08/24 11:36:46;;;;;;;14.07;7.70;;;24.90;99.90;;;;;;5045622;28;20522;-73
2023/08/24 11:39:19;;;;;;;13.98;7.35;;;25.10;99.90;;;;;;5020000;28;20534;-73
2023/08/24 11:42:09;;;;;;;15.70;7.53;;;25.20;99.90;;;;;;4999207;28;20060;-74
2023/08/24 11:44:48;;;;;;;14.02;7.25;;;25.40;99.90;;;;;;5040771;28;20167;-74
2023/08/24 11:47:15;;;;;;;14.90;7.28;;;25.50;99.90;;;;;;5015767;28;20052;-74
2023/08/24 11:49:42;;;;;;;13.95;7.25;;;25.70;99.90;;;;;;5047049;28;20589;-73
2023/08/24 11:52:08;;;;;;;14.13;7.20;;;25.90;99.90;;;;;;4992988;28;84948;-73
2023/08/24 11:54:38;;;;;;;12.55;6.30;;;26.10;99.90;;;;;;5048077;28;20072;-73
2023/08/24 11:57:10;;;;;;;13.27;6.18;;;26.30;99.90;;;;;;5000318;28;20053;-74
2023/08/24 11:59:38;;;;;;;14.45;5.68;;;26.40;99.90;;;;;;5021851;28;20071;-72
2023/08/24 12:02:05;;;;;;;12.88;5.72;;;26.50;99.90;;;;;;5015750;28;20055;-73
2023/08/24 12:04:42;;;;;;;13.70;5.80;;;26.60;99.90;;;;;;5048630;28;20600;-74
2023/08/24 12:07:11;;;;;;;11.23;6.53;;;26.70;99.90;;;;;;5022931;28;20056;-73
2023/08/24 12:09:39;;;;;;;12.60;6.23;;;26.60;99.90;;;;;;5053949;28;20050;-74
2023/08/24 12:12:05;;;;;;;11.50;5.90;;;26.60;99.90;;;;;;5006519;28;20051;-73
2023/08/24 12:14:42;;;;;;;13.65;6.10;;;26.60;99.90;;;;;;5058460;28;20052;-74
2023/08/24 12:17:12;;;;;;;13.38;6.60;;;26.50;99.90;;;;;;5025209;28;20127;-75
2023/08/24 12:19:45;;;;;;;14.52;6.85;;;26.30;99.70;;;;;;5045417;28;20052;-74
2023/08/24 12:22:16;;;;;;;12.43;5.75;;;26.10;99.80;;;;;;5019442;28;20059;-73
2023/08/24 12:24:46;;;;;;;13.10;6.13;;;25.90;99.90;;;;;;5045481;28;20044;-74
2023/08/24 12:27:27;;;;;;;12.23;6.55;;;26.00;99.90;;;;;;5026168;28;21452;-73
2023/08/24 12:29:53;;;;;;;13.85;6.07;;;25.90;99.90;;;;;;5061957;28;20088;-73
2023/08/24 12:32:23;;;;;;;13.63;6.05;;;25.80;99.90;;;;;;5025993;28;20085;-72
2023/08/24 12:34:51;;;;;;;14.68;5.97;;;25.90;99.90;;;;;;5061117;28;20697;-72
2023/08/24 12:37:17;;;;;;;13.15;6.78;;;26.10;99.90;;;;;;5021887;28;20047;-72
2023/08/24 12:39:44;;;;;;;15.60;6.10;;;26.30;99.90;;;;;;5065496;28;20414;-72
2023/08/24 12:42:10;;;;;;;14.75;6.47;;;26.50;99.90;;;;;;5023383;28;20036;-72